createdAt,value
2023-03-21T00:00:03.049Z,3.10
2023-03-21T00:01:01.892Z,2.50
2023-03-21T00:02:01.815Z,3.00
2023-03-21T00:03:01.889Z,3.90
2023-03-21T00:04:01.828Z,2.80
2023-03-21T00:05:13.308Z,2.70
2023-03-21T00:06:02.904Z,3.10
2023-03-21T00:07:01.846Z,2.50
2023-03-21T00:08:02.701Z,2.60
2023-03-21T00:09:01.803Z,3.00
2023-03-21T00:10:14.407Z,2.50
2023-03-21T00:11:02.737Z,2.50
2023-03-21T00:12:01.783Z,3.70
2023-03-21T00:13:01.771Z,2.60
2023-03-21T00:14:01.687Z,3.40
2023-03-21T00:15:01.707Z,3.30
2023-03-21T00:16:06.683Z,4.40
2023-03-21T00:17:02.752Z,2.90
2023-03-21T00:18:01.671Z,3.20
2023-03-21T00:19:01.772Z,2.70
2023-03-21T00:20:01.882Z,3.30
2023-03-21T00:21:35.649Z,3.20
2023-03-21T00:22:08.091Z,2.90
2023-03-21T00:23:02.680Z,4.00
2023-03-21T00:24:01.646Z,4.20
2023-03-21T00:25:01.801Z,3.10
2023-03-21T00:26:01.672Z,3.00
2023-03-21T00:28:08.323Z,3.20
2023-03-21T00:29:02.609Z,2.70
2023-03-21T00:30:01.684Z,3.50
2023-03-21T00:31:01.583Z,3.10
2023-03-21T00:32:01.623Z,2.60
2023-03-21T00:33:05.928Z,2.90
2023-03-21T00:34:02.538Z,2.60
2023-03-21T00:35:29.450Z,2.60
2023-03-21T00:36:05.396Z,2.30
2023-03-21T00:37:01.486Z,3.30
2023-03-21T00:38:01.492Z,2.90
2023-03-21T00:39:01.537Z,2.90
2023-03-21T00:40:01.655Z,4.00
2023-03-21T00:41:11.050Z,4.80
2023-03-21T00:42:02.410Z,3.00
2023-03-21T00:43:01.378Z,3.60
2023-03-21T00:44:01.469Z,3.90
2023-03-21T00:45:01.416Z,3.50
2023-03-21T00:46:01.415Z,3.00
2023-03-21T00:47:07.670Z,2.90
2023-03-21T00:48:02.539Z,3.70
2023-03-21T00:49:01.446Z,4.80
2023-03-21T00:50:01.370Z,4.30
2023-03-21T00:51:01.431Z,3.80
2023-03-21T00:52:14.700Z,3.60
2023-03-21T00:53:02.413Z,3.00
2023-03-21T00:54:01.246Z,4.00
2023-03-21T00:55:01.265Z,4.90
2023-03-21T00:56:01.250Z,3.30
2023-03-21T00:57:01.238Z,3.50
2023-03-21T00:58:02.548Z,3.00
2023-03-21T00:59:01.270Z,3.60
2023-03-21T01:00:01.318Z,3.80
2023-03-21T01:01:01.242Z,3.40
2023-03-21T01:02:01.234Z,3.50
2023-03-21T01:03:08.541Z,3.10
2023-03-21T01:04:02.248Z,2.80
2023-03-21T01:05:01.138Z,3.70
2023-03-21T01:06:01.122Z,3.70
2023-03-21T01:07:01.138Z,4.90
2023-03-21T01:08:02.941Z,3.30
2023-03-21T01:09:01.118Z,3.70
2023-03-21T01:10:01.193Z,4.20
2023-03-21T01:11:01.149Z,3.00
2023-03-21T01:12:01.108Z,3.20
2023-03-21T01:13:01.102Z,4.20
2023-03-21T01:14:18.584Z,3.50
2023-03-21T01:15:02.067Z,3.30
2023-03-21T01:16:01.213Z,4.40
2023-03-21T01:17:01.099Z,2.60
2023-03-21T01:18:01.036Z,4.00
2023-03-21T01:19:02.100Z,4.30
2023-03-21T01:20:01.063Z,3.40
2023-03-21T01:21:00.995Z,4.20
2023-03-21T01:22:01.072Z,3.40
2023-03-21T01:23:00.992Z,4.10
2023-03-21T01:24:00.978Z,4.40
2023-03-21T01:25:19.213Z,4.40
2023-03-21T01:26:01.990Z,5.00
2023-03-21T01:27:00.962Z,3.70
2023-03-21T01:28:00.955Z,4.90
2023-03-21T01:29:01.077Z,3.20
2023-03-21T01:30:01.046Z,5.00
2023-03-21T01:31:00.948Z,4.10
2023-03-21T01:32:00.886Z,3.10
2023-03-21T01:33:01.022Z,4.20
2023-03-21T01:34:00.921Z,5.30
2023-03-21T01:35:00.877Z,4.30
2023-03-21T01:36:12.358Z,4.20
2023-03-21T01:37:01.894Z,4.30
2023-03-21T01:38:00.852Z,4.30
2023-03-21T01:39:00.909Z,3.50
2023-03-21T01:40:00.768Z,4.60
2023-03-21T01:41:00.763Z,3.00
2023-03-21T01:42:00.804Z,3.20
2023-03-21T01:43:00.855Z,4.90
2023-03-21T01:44:00.751Z,4.50
2023-03-21T01:45:00.799Z,3.80
2023-03-21T01:46:00.771Z,3.40
2023-03-21T01:47:10.483Z,3.30
2023-03-21T01:48:01.869Z,3.20
2023-03-21T01:49:00.738Z,3.60
2023-03-21T01:50:00.747Z,4.20
2023-03-21T01:51:00.693Z,3.90
2023-03-21T01:52:03.649Z,4.00
2023-03-21T01:53:01.670Z,5.20
2023-03-21T01:54:00.694Z,3.40
2023-03-21T01:55:08.228Z,3.40
2023-03-21T01:56:08.129Z,4.50
2023-03-21T01:57:10.137Z,3.90
2023-03-21T01:58:09.569Z,4.60
2023-03-21T01:59:00.608Z,4.30
2023-03-21T02:00:08.108Z,4.90
2023-03-21T02:01:09.485Z,4.50
2023-03-21T02:02:08.293Z,4.20
2023-03-21T02:03:15.118Z,4.10
2023-03-21T02:04:08.227Z,3.70
2023-03-21T02:06:58.530Z,5.00
2023-03-21T02:08:07.216Z,4.80
2023-03-21T02:09:06.003Z,4.90
2023-03-21T02:10:05.570Z,3.70
2023-03-21T02:10:58.447Z,4.10
2023-03-21T02:11:58.491Z,4.50
2023-03-21T02:12:59.162Z,3.90
2023-03-21T02:14:06.150Z,4.70
2023-03-21T02:14:59.430Z,3.10
2023-03-21T02:15:58.460Z,4.60
2023-03-21T02:16:58.435Z,5.00
2023-03-21T02:17:58.358Z,3.10
2023-03-21T02:18:58.367Z,5.20
2023-03-21T02:19:58.340Z,3.40
2023-03-21T02:20:58.373Z,4.80
2023-03-21T02:21:58.424Z,4.50
2023-03-21T02:22:58.370Z,3.70
2023-03-21T02:23:58.290Z,4.80
2023-03-21T02:25:04.278Z,4.30
2023-03-21T02:25:59.359Z,5.10
2023-03-21T02:27:03.901Z,3.40
2023-03-21T02:27:59.245Z,3.20
2023-03-21T02:28:58.305Z,4.30
2023-03-21T02:29:58.279Z,3.40
2023-03-21T02:30:58.904Z,4.80
2023-03-21T02:32:03.469Z,4.70
2023-03-21T02:32:59.223Z,4.00
2023-03-21T02:33:58.161Z,4.50
2023-03-21T02:35:00.585Z,4.00
2023-03-21T02:36:02.990Z,4.40
2023-03-21T02:36:59.144Z,3.70
2023-03-21T02:38:00.582Z,3.70
2023-03-21T02:38:58.165Z,4.10
2023-03-21T02:39:58.244Z,4.70
2023-03-21T02:41:00.330Z,3.90
2023-03-21T02:41:58.168Z,4.20
2023-03-21T02:43:00.996Z,3.30
2023-03-21T02:43:58.068Z,3.40
2023-03-21T02:44:58.168Z,5.10
2023-03-21T02:45:58.116Z,4.40
2023-03-21T02:47:05.459Z,3.50
2023-03-21T02:47:59.088Z,4.20
2023-03-21T02:48:58.069Z,3.80
2023-03-21T02:49:58.083Z,4.20
2023-03-21T02:50:58.032Z,3.50
2023-03-21T02:52:00.246Z,4.60
2023-03-21T02:52:58.964Z,4.80
2023-03-21T02:54:23.780Z,4.20
2023-03-21T02:54:58.998Z,3.90
2023-03-21T02:55:57.936Z,3.50
2023-03-21T02:56:58.026Z,4.70
2023-03-21T02:58:06.966Z,3.60
2023-03-21T02:58:58.920Z,4.00
2023-03-21T03:00:02.460Z,5.50
2023-03-21T03:00:59.014Z,4.20
2023-03-21T03:01:57.896Z,3.40
2023-03-21T03:03:08.739Z,3.80
2023-03-21T03:03:59.002Z,3.70
2023-03-21T03:04:58.759Z,3.90
2023-03-21T03:05:57.839Z,4.80
2023-03-21T03:06:57.874Z,3.70
2023-03-21T03:07:57.876Z,5.70
2023-03-21T03:09:02.631Z,3.40
2023-03-21T03:09:58.797Z,3.50
2023-03-21T03:10:57.808Z,3.20
2023-03-21T03:11:57.806Z,4.10
2023-03-21T03:12:57.819Z,3.90
2023-03-21T03:13:58.221Z,4.20
2023-03-21T03:15:03.566Z,4.40
2023-03-21T03:15:59.501Z,4.80
2023-03-21T03:16:57.768Z,3.50
2023-03-21T03:17:57.786Z,3.60
2023-03-21T03:18:57.728Z,4.40
2023-03-21T03:19:57.759Z,3.20
2023-03-21T03:20:57.784Z,5.60
2023-03-21T03:21:57.625Z,3.50
2023-03-21T03:22:57.809Z,3.80
2023-03-21T03:23:57.674Z,3.40
2023-03-21T03:24:58.585Z,3.20
2023-03-21T03:25:57.657Z,4.40
2023-03-21T03:26:57.608Z,4.40
2023-03-21T03:27:57.658Z,4.50
2023-03-21T03:28:57.622Z,3.70
2023-03-21T03:29:57.577Z,4.20
2023-03-21T03:31:08.762Z,4.20
2023-03-21T03:31:58.613Z,3.60
2023-03-21T03:32:57.579Z,3.30
2023-03-21T03:33:57.560Z,4.60
2023-03-21T03:34:57.558Z,3.70
2023-03-21T03:36:05.074Z,5.70
2023-03-21T03:36:58.535Z,3.60
2023-03-21T03:37:57.543Z,3.40
2023-03-21T03:38:57.544Z,3.80
2023-03-21T03:39:57.494Z,5.40
2023-03-21T03:40:57.459Z,5.30
2023-03-21T03:42:10.265Z,2.90
2023-03-21T03:42:58.492Z,4.30
2023-03-21T03:43:57.402Z,3.80
2023-03-21T03:44:57.430Z,5.60
2023-03-21T03:45:57.431Z,4.10
2023-03-21T03:46:57.519Z,3.40
2023-03-21T03:47:57.778Z,5.90
2023-03-21T03:48:57.429Z,5.20
2023-03-21T03:49:57.391Z,3.80
2023-03-21T03:50:57.386Z,3.40
2023-03-21T03:51:57.377Z,4.80
2023-03-21T03:52:59.856Z,3.40
2023-03-21T03:53:57.375Z,4.80
2023-03-21T03:54:57.344Z,5.50
2023-03-21T03:55:57.320Z,3.90
2023-03-21T03:56:57.316Z,3.70
2023-03-21T03:57:57.309Z,4.30
2023-03-21T03:58:57.303Z,3.80
2023-03-21T03:59:57.314Z,4.60
2023-03-21T04:00:57.270Z,4.00
2023-03-21T04:01:57.301Z,4.00
2023-03-21T04:02:57.324Z,4.20
2023-03-21T04:04:10.626Z,4.50
2023-03-21T04:04:58.220Z,4.70
2023-03-21T04:05:57.222Z,4.20
2023-03-21T04:06:58.134Z,5.30
2023-03-21T04:07:57.210Z,5.20
2023-03-21T04:08:57.449Z,6.10
2023-03-21T04:09:57.251Z,4.50
2023-03-21T04:10:57.313Z,4.40
2023-03-21T04:11:57.146Z,3.20
2023-03-21T04:12:57.178Z,4.20
2023-03-21T04:13:57.127Z,6.00
2023-03-21T04:15:04.906Z,4.60
2023-03-21T04:15:58.148Z,3.40
2023-03-21T04:16:57.085Z,3.90
2023-03-21T04:17:57.102Z,4.20
2023-03-21T04:18:57.040Z,5.30
2023-03-21T04:20:05.462Z,4.20
2023-03-21T04:20:58.070Z,3.30
2023-03-21T04:21:57.033Z,3.30
2023-03-21T04:22:57.035Z,5.00
2023-03-21T04:23:56.989Z,5.60
2023-03-21T04:24:56.956Z,5.20
2023-03-21T04:25:57.457Z,4.20
2023-03-21T04:26:57.025Z,3.90
2023-03-21T04:27:57.019Z,5.30
2023-03-21T04:28:57.054Z,3.60
2023-03-21T04:29:56.984Z,4.60
2023-03-21T04:31:03.807Z,4.90
2023-03-21T04:31:58.070Z,4.80
2023-03-21T04:32:56.980Z,3.00
2023-03-21T04:33:56.876Z,5.20
2023-03-21T04:34:56.956Z,5.80
2023-03-21T04:35:56.889Z,4.80
2023-03-21T04:36:56.832Z,4.50
2023-03-21T04:37:56.861Z,4.00
2023-03-21T04:38:57.095Z,3.70
2023-03-21T04:39:56.877Z,4.80
2023-03-21T04:40:56.833Z,4.30
2023-03-21T04:41:56.801Z,5.20
2023-03-21T04:42:56.736Z,4.20
2023-03-21T04:43:56.719Z,4.70
2023-03-21T04:44:56.743Z,5.50
2023-03-21T04:45:56.756Z,3.40
2023-03-21T04:46:56.728Z,4.40
2023-03-21T04:47:56.701Z,4.10
2023-03-21T04:48:56.746Z,5.10
2023-03-21T04:49:56.706Z,4.30
2023-03-21T04:50:56.666Z,4.10
2023-03-21T04:51:56.724Z,5.30
2023-03-21T04:52:56.646Z,4.10
2023-03-21T04:53:56.634Z,4.40
2023-03-21T04:54:56.698Z,3.70
2023-03-21T04:55:56.695Z,5.20
2023-03-21T04:56:56.588Z,5.40
2023-03-21T04:57:56.604Z,5.50
2023-03-21T04:58:56.624Z,4.30
2023-03-21T04:59:56.670Z,4.00
2023-03-21T05:00:56.541Z,4.20
2023-03-21T05:01:56.595Z,4.10
2023-03-21T05:02:56.518Z,3.80
2023-03-21T05:03:56.876Z,4.30
2023-03-21T05:04:56.613Z,2.90
2023-03-21T05:05:56.649Z,4.30
2023-03-21T05:06:56.566Z,3.80
2023-03-21T05:07:56.583Z,5.40
2023-03-21T05:08:56.676Z,3.40
2023-03-21T05:09:56.568Z,4.20
2023-03-21T05:10:56.453Z,4.00
2023-03-21T05:11:56.596Z,3.70
2023-03-21T05:12:56.427Z,4.00
2023-03-21T05:13:56.932Z,3.90
2023-03-21T05:14:56.533Z,3.40
2023-03-21T05:15:56.549Z,4.80
2023-03-21T05:16:56.543Z,4.50
2023-03-21T05:17:56.451Z,3.80
2023-03-21T05:18:56.382Z,3.70
2023-03-21T05:19:56.686Z,4.80
2023-03-21T05:20:56.391Z,4.30
2023-03-21T05:21:56.354Z,3.90
2023-03-21T05:22:56.333Z,5.00
2023-03-21T05:23:56.326Z,3.80
2023-03-21T05:24:56.416Z,5.60
2023-03-21T05:25:56.374Z,5.40
2023-03-21T05:27:04.254Z,4.30
2023-03-21T05:27:56.417Z,4.70
2023-03-21T05:28:56.420Z,4.50
2023-03-21T05:33:11.543Z,4.70
2023-03-21T05:41:14.692Z,4.90
2023-03-21T05:44:30.852Z,4.00
2023-03-21T05:45:31.052Z,4.10
2023-03-21T05:46:30.840Z,4.60
2023-03-21T05:47:30.900Z,3.50
2023-03-21T05:48:30.750Z,4.40
2023-03-21T05:49:30.731Z,3.70
2023-03-21T05:50:30.712Z,5.00
2023-03-21T05:51:30.654Z,4.40
2023-03-21T05:52:30.663Z,4.10
2023-03-21T05:53:30.742Z,5.80
2023-03-21T05:54:30.681Z,4.70
2023-03-21T05:55:30.641Z,6.50
2023-03-21T05:56:30.640Z,4.70
2023-03-21T05:57:30.593Z,4.00
2023-03-21T05:58:30.619Z,6.50
2023-03-21T05:59:30.603Z,5.90
2023-03-21T06:00:30.834Z,3.60
2023-03-21T06:01:30.806Z,3.70
2023-03-21T06:02:30.657Z,4.90
2023-03-21T06:03:30.693Z,5.00
2023-03-21T06:04:30.546Z,5.10
2023-03-21T06:05:30.544Z,5.20
2023-03-21T06:06:30.644Z,5.60
2023-03-21T06:07:30.537Z,4.10
2023-03-21T06:08:37.958Z,3.80
2023-03-21T06:09:30.416Z,4.20
2023-03-21T06:10:30.402Z,4.40
2023-03-21T06:11:30.425Z,5.60
2023-03-21T06:12:30.422Z,4.90
2023-03-21T06:13:30.556Z,4.10
2023-03-21T06:14:30.356Z,4.90
2023-03-21T06:15:30.582Z,4.70
2023-03-21T06:17:48.359Z,4.20
2023-03-21T06:18:55.805Z,5.10
2023-03-21T06:19:48.281Z,5.10
2023-03-21T06:20:48.281Z,5.80
2023-03-21T06:21:48.274Z,4.80
2023-03-21T06:22:48.346Z,4.50
2023-03-21T06:23:48.255Z,4.60
2023-03-21T06:24:48.243Z,5.10
2023-03-21T06:25:48.294Z,4.60
2023-03-21T06:26:48.251Z,5.70
2023-03-21T06:27:48.192Z,5.10
2023-03-21T06:28:48.174Z,4.50
2023-03-21T06:29:48.176Z,4.70
2023-03-21T06:30:48.146Z,5.00
2023-03-21T06:31:48.253Z,5.10
2023-03-21T06:32:48.194Z,3.80
2023-03-21T06:33:48.156Z,4.50
2023-03-21T06:34:48.158Z,3.60
2023-03-21T06:35:48.159Z,5.10
2023-03-21T06:36:48.113Z,3.70
2023-03-21T06:37:48.084Z,4.00
2023-03-21T06:38:48.118Z,5.00
2023-03-21T06:39:48.088Z,5.30
2023-03-21T06:40:48.051Z,5.70
2023-03-21T06:41:48.147Z,5.50
2023-03-21T06:42:48.042Z,6.00
2023-03-21T06:43:48.038Z,4.50
2023-03-21T06:44:48.021Z,4.70
2023-03-21T06:45:48.018Z,3.90
2023-03-21T06:46:48.068Z,6.60
2023-03-21T06:47:47.999Z,4.40
2023-03-21T06:48:47.956Z,4.50
2023-03-21T06:49:47.970Z,5.70
2023-03-21T06:50:47.967Z,5.70
2023-03-21T06:51:47.924Z,4.60
2023-03-21T06:52:47.925Z,5.20
2023-03-21T06:53:47.919Z,5.30
2023-03-21T06:54:47.961Z,5.70
2023-03-21T06:55:47.933Z,6.30
2023-03-21T06:56:47.885Z,5.30
2023-03-21T06:57:47.905Z,4.80
2023-03-21T06:58:47.872Z,5.70
2023-03-21T06:59:47.846Z,4.30
2023-03-21T07:00:47.869Z,6.20
2023-03-21T07:01:47.844Z,5.40
2023-03-21T07:02:50.681Z,4.30
2023-03-21T07:03:47.797Z,6.10
2023-03-21T07:04:47.814Z,4.30
2023-03-21T07:05:47.807Z,4.00
2023-03-21T07:06:47.784Z,4.60
2023-03-21T07:07:47.771Z,4.40
2023-03-21T07:08:47.782Z,5.40
2023-03-21T07:09:47.735Z,5.30
2023-03-21T07:10:47.725Z,5.90
2023-03-21T07:11:47.746Z,4.60
2023-03-21T07:12:47.767Z,5.80
2023-03-21T07:13:47.748Z,4.90
2023-03-21T07:14:47.693Z,5.20
2023-03-21T07:15:47.680Z,3.80
2023-03-21T07:16:47.727Z,5.80
2023-03-21T07:17:47.648Z,4.60
2023-03-21T07:18:47.655Z,4.20
2023-03-21T07:19:47.631Z,5.10
2023-03-21T07:20:47.633Z,4.20
2023-03-21T07:21:47.660Z,4.80
2023-03-21T07:22:47.616Z,3.50
2023-03-21T07:23:47.585Z,8.70
2023-03-21T07:24:55.957Z,4.80
2023-03-21T07:25:48.615Z,4.40
2023-03-21T07:26:47.565Z,3.40
2023-03-21T07:27:47.546Z,4.30
2023-03-21T07:28:47.539Z,4.00
2023-03-21T07:29:47.526Z,4.30
2023-03-21T07:30:47.506Z,3.70
2023-03-21T07:31:47.580Z,5.70
2023-03-21T07:32:47.489Z,4.50
2023-03-21T07:33:47.520Z,4.30
2023-03-21T07:34:47.481Z,4.00
2023-03-21T07:35:47.589Z,4.60
2023-03-21T07:36:47.490Z,4.40
2023-03-21T07:37:47.439Z,5.40
2023-03-21T07:38:47.428Z,4.50
2023-03-21T07:39:47.408Z,4.70
2023-03-21T07:40:47.444Z,4.10
2023-03-21T07:41:47.445Z,4.60
2023-03-21T07:42:47.412Z,3.60
2023-03-21T07:43:47.418Z,2.90
2023-03-21T07:44:47.425Z,5.40
2023-03-21T07:45:47.471Z,4.90
2023-03-21T07:46:47.364Z,5.00
2023-03-21T07:47:47.393Z,4.50
2023-03-21T07:48:47.362Z,4.70
2023-03-21T07:49:47.320Z,5.30
2023-03-21T07:50:47.444Z,3.80
2023-03-21T07:51:47.376Z,3.60
2023-03-21T07:52:47.342Z,3.70
2023-03-21T07:53:47.304Z,3.90
2023-03-21T07:54:47.321Z,2.80
2023-03-21T07:55:47.291Z,4.40
2023-03-21T07:56:47.349Z,6.70
2023-03-21T07:57:47.290Z,4.40
2023-03-21T07:58:47.269Z,4.30
2023-03-21T07:59:47.293Z,4.30
2023-03-21T08:00:47.222Z,3.90
2023-03-21T08:01:47.232Z,3.70
2023-03-21T08:02:47.306Z,3.90
2023-03-21T08:03:47.228Z,4.10
2023-03-21T08:04:47.288Z,4.40
2023-03-21T08:05:47.222Z,5.40
2023-03-21T08:06:47.297Z,4.60
2023-03-21T08:07:47.184Z,3.90
2023-03-21T08:08:47.183Z,4.80
2023-03-21T08:09:47.124Z,4.80
2023-03-21T08:10:47.135Z,4.20
2023-03-21T08:11:47.133Z,6.30
2023-03-21T08:12:47.130Z,4.70
2023-03-21T08:13:47.116Z,4.10
2023-03-21T08:14:47.076Z,3.70
2023-03-21T08:15:47.070Z,3.70
2023-03-21T08:16:47.285Z,7.40
2023-03-21T08:17:47.111Z,5.00
2023-03-21T08:18:47.025Z,4.20
2023-03-21T08:19:47.058Z,4.90
2023-03-21T08:20:47.007Z,5.50
2023-03-21T08:21:46.985Z,4.10
2023-03-21T08:22:47.009Z,4.00
2023-03-21T08:23:47.002Z,3.20
2023-03-21T08:24:46.991Z,2.90
2023-03-21T08:25:46.976Z,3.80
2023-03-21T08:26:46.968Z,4.30
2023-03-21T08:27:46.962Z,3.80
2023-03-21T08:28:46.949Z,4.70
2023-03-21T08:29:46.954Z,4.10
2023-03-21T08:30:46.981Z,5.30
2023-03-21T08:31:46.902Z,4.70
2023-03-21T08:32:46.957Z,4.20
2023-03-21T08:33:46.993Z,3.20
2023-03-21T08:34:46.884Z,3.80
2023-03-21T08:35:47.116Z,3.40
2023-03-21T08:36:46.849Z,2.40
2023-03-21T08:37:46.914Z,3.60
2023-03-21T08:38:46.816Z,3.50
2023-03-21T08:39:46.907Z,3.50
2023-03-21T08:40:46.773Z,3.40
2023-03-21T08:41:46.830Z,3.10
2023-03-21T08:42:46.779Z,3.50
2023-03-21T08:43:46.782Z,3.50
2023-03-21T08:44:46.754Z,4.90
2023-03-21T08:45:46.814Z,3.30
2023-03-21T08:46:46.734Z,3.30
2023-03-21T08:47:46.865Z,4.00
2023-03-21T08:48:46.752Z,4.70
2023-03-21T08:49:46.708Z,3.30
2023-03-21T08:50:46.787Z,2.90
2023-03-21T08:51:46.661Z,3.70
2023-03-21T08:52:46.714Z,5.50
2023-03-21T08:53:46.662Z,4.20
2023-03-21T08:54:46.658Z,5.10
2023-03-21T08:55:46.669Z,4.40
2023-03-21T08:56:46.638Z,3.20
2023-03-21T08:57:46.598Z,2.90
2023-03-21T08:58:46.644Z,5.00
2023-03-21T08:59:46.593Z,2.60
2023-03-21T09:00:46.603Z,4.30
2023-03-21T09:01:46.613Z,4.50
2023-03-21T09:02:46.657Z,4.30
2023-03-21T09:03:46.547Z,5.50
2023-03-21T09:04:46.585Z,4.20
2023-03-21T09:05:46.533Z,5.80
2023-03-21T09:06:46.513Z,4.00
2023-03-21T09:07:46.564Z,5.10
2023-03-21T09:08:46.530Z,5.60
2023-03-21T09:09:53.484Z,5.00
2023-03-21T09:10:47.459Z,5.00
2023-03-21T09:11:46.485Z,4.30
2023-03-21T09:12:46.524Z,3.10
2023-03-21T09:13:46.487Z,5.60
2023-03-21T09:14:46.453Z,4.50
2023-03-21T09:15:46.505Z,4.70
2023-03-21T09:16:46.458Z,4.90
2023-03-21T09:17:46.449Z,5.20
2023-03-21T09:18:46.491Z,5.70
2023-03-21T09:19:46.407Z,3.20
2023-03-21T09:20:46.357Z,4.40
2023-03-21T09:21:46.349Z,4.70
2023-03-21T09:22:46.379Z,4.30
2023-03-21T09:23:46.356Z,5.60
2023-03-21T09:24:46.383Z,4.30
2023-03-21T09:25:46.335Z,3.70
2023-03-21T09:26:46.371Z,4.80
2023-03-21T09:27:46.331Z,4.20
2023-03-21T09:28:46.307Z,5.30
2023-03-21T09:29:46.318Z,5.80
2023-03-21T09:30:46.332Z,5.60
2023-03-21T09:31:46.274Z,3.50
2023-03-21T09:32:46.244Z,6.00
2023-03-21T09:33:46.246Z,6.20
2023-03-21T09:34:46.262Z,5.10
2023-03-21T09:35:46.275Z,5.60
2023-03-21T09:36:46.194Z,4.60
2023-03-21T09:37:46.218Z,5.10
2023-03-21T09:38:46.202Z,4.10
2023-03-21T09:39:46.192Z,4.30
2023-03-21T09:40:46.141Z,5.60
2023-03-21T09:41:46.284Z,4.30
2023-03-21T09:42:46.123Z,4.90
2023-03-21T09:43:46.149Z,6.50
2023-03-21T09:44:46.116Z,4.50
2023-03-21T09:45:46.141Z,5.90
2023-03-21T09:46:46.144Z,6.20
2023-03-21T09:47:46.091Z,5.90
2023-03-21T09:48:54.461Z,6.80
2023-03-21T09:49:47.049Z,5.10
2023-03-21T09:50:46.154Z,4.70
2023-03-21T09:51:46.085Z,3.50
2023-03-21T09:52:46.043Z,3.80
2023-03-21T09:53:45.996Z,5.20
2023-03-21T09:54:46.000Z,4.20
2023-03-21T09:55:46.040Z,5.40
2023-03-21T09:56:46.060Z,3.90
2023-03-21T09:57:45.956Z,3.90
2023-03-21T09:58:46.073Z,3.90
2023-03-21T09:59:45.966Z,5.40
2023-03-21T10:00:46.020Z,4.70
2023-03-21T10:01:45.943Z,3.60
2023-03-21T10:02:45.906Z,4.20
2023-03-21T10:03:46.093Z,6.30
2023-03-21T10:04:45.985Z,3.80
2023-03-21T10:05:45.974Z,5.20
2023-03-21T10:06:45.889Z,4.00
2023-03-21T10:07:45.891Z,5.60
2023-03-21T10:08:45.920Z,5.50
2023-03-21T10:09:45.859Z,9.10
2023-03-21T10:10:45.815Z,7.50
2023-03-21T10:11:45.825Z,10.30
2023-03-21T10:12:45.818Z,11.90
2023-03-21T10:13:45.841Z,13.90
2023-03-21T10:14:45.856Z,14.60
2023-03-21T10:15:45.821Z,24.30
2023-03-21T10:16:45.834Z,81.00
2023-03-21T10:17:45.777Z,100.30
2023-03-21T10:18:45.745Z,79.70
2023-03-21T10:19:45.713Z,73.50
2023-03-21T10:20:45.682Z,60.00
2023-03-21T10:22:00.183Z,50.50
2023-03-21T10:22:46.663Z,40.60
2023-03-21T10:23:45.644Z,45.60
2023-03-21T10:24:45.660Z,34.40
2023-03-21T10:25:45.654Z,39.70
2023-03-21T10:26:45.600Z,37.40
2023-03-21T10:27:45.600Z,34.00
2023-03-21T10:28:52.752Z,36.40
2023-03-21T10:29:46.600Z,26.30
2023-03-21T10:30:45.569Z,25.40
2023-03-21T10:31:45.627Z,23.10
2023-03-21T10:32:45.604Z,19.60
2023-03-21T10:33:45.534Z,22.00
2023-03-21T10:34:45.549Z,20.60
2023-03-21T10:35:45.550Z,14.60
2023-03-21T10:36:45.500Z,13.50
2023-03-21T10:37:45.572Z,15.30
2023-03-21T10:38:45.480Z,12.20
2023-03-21T10:39:45.483Z,13.40
2023-03-21T10:40:45.459Z,11.80
2023-03-21T10:41:45.451Z,10.50
2023-03-21T10:42:45.472Z,9.50
2023-03-21T10:43:45.422Z,7.70
2023-03-21T10:44:45.429Z,6.70
2023-03-21T10:45:45.444Z,8.50
2023-03-21T10:46:45.611Z,12.40
2023-03-21T10:47:45.619Z,11.70
2023-03-21T10:48:45.470Z,7.10
2023-03-21T10:50:06.243Z,7.90
2023-03-21T10:50:46.419Z,9.00
2023-03-21T10:51:46.272Z,9.10
2023-03-21T10:52:45.447Z,8.70
2023-03-21T10:53:45.327Z,7.00
2023-03-21T10:54:45.324Z,7.10
2023-03-21T10:55:45.323Z,3.30
2023-03-21T10:56:45.281Z,5.80
2023-03-21T10:57:45.269Z,5.30
2023-03-21T10:58:45.263Z,4.20
2023-03-21T10:59:45.248Z,5.10
2023-03-21T11:00:45.418Z,5.80
2023-03-21T11:01:45.272Z,13.80
2023-03-21T11:02:45.250Z,9.20
2023-03-21T11:03:45.224Z,8.40
2023-03-21T11:04:45.206Z,5.00
2023-03-21T11:05:45.214Z,8.50
2023-03-21T11:06:45.294Z,4.80
2023-03-21T11:07:45.179Z,8.50
2023-03-21T11:08:45.178Z,5.30
2023-03-21T11:09:45.168Z,5.20
2023-03-21T11:10:45.131Z,3.70
2023-03-21T11:11:45.134Z,3.40
2023-03-21T11:12:45.111Z,4.60
2023-03-21T11:13:45.148Z,3.30
2023-03-21T11:14:45.093Z,7.20
2023-03-21T11:15:45.096Z,5.20
2023-03-21T11:16:45.087Z,4.00
2023-03-21T11:17:45.063Z,3.50
2023-03-21T11:18:45.054Z,3.60
2023-03-21T11:19:45.049Z,2.80
2023-03-21T11:20:45.064Z,5.50
2023-03-21T11:21:45.028Z,2.60
2023-03-21T11:22:45.007Z,3.50
2023-03-21T11:23:44.994Z,5.60
2023-03-21T11:24:44.993Z,3.10
2023-03-21T11:25:45.009Z,5.50
2023-03-21T11:26:45.004Z,4.40
2023-03-21T11:27:44.975Z,4.30
2023-03-21T11:28:45.039Z,3.40
2023-03-21T11:29:44.988Z,6.00
2023-03-21T11:30:45.028Z,5.70
2023-03-21T11:31:44.993Z,2.00
2023-03-21T11:32:44.957Z,5.20
2023-03-21T11:33:44.945Z,2.70
2023-03-21T11:34:44.899Z,1.70
2023-03-21T11:35:44.937Z,2.90
2023-03-21T11:36:44.882Z,1.60
2023-03-21T11:37:47.360Z,4.10
2023-03-21T11:38:45.310Z,2.00
2023-03-21T11:39:44.961Z,2.70
2023-03-21T11:40:44.908Z,3.60
2023-03-21T11:41:44.816Z,1.40
2023-03-21T11:42:44.945Z,2.40
2023-03-21T11:43:44.831Z,2.30
2023-03-21T11:44:44.850Z,2.70
2023-03-21T11:45:44.853Z,3.30
2023-03-21T11:46:44.791Z,3.30
2023-03-21T11:47:44.865Z,2.70
2023-03-21T11:48:44.785Z,2.90
2023-03-21T11:49:44.756Z,3.30
2023-03-21T11:50:44.861Z,2.30
2023-03-21T11:51:44.738Z,1.60
2023-03-21T11:52:44.709Z,3.40
2023-03-21T11:53:44.681Z,4.20
2023-03-21T11:54:44.676Z,2.50
2023-03-21T11:55:44.664Z,1.80
2023-03-21T11:56:44.665Z,4.70
2023-03-21T11:57:44.684Z,2.20
2023-03-21T11:58:45.162Z,2.50
2023-03-21T11:59:44.639Z,3.40
2023-03-21T12:00:44.634Z,3.20
2023-03-21T12:01:44.626Z,2.60
2023-03-21T12:02:44.640Z,1.30
2023-03-21T12:03:48.295Z,2.90
2023-03-21T12:04:44.637Z,2.10
2023-03-21T12:05:44.876Z,1.50
2023-03-21T12:06:44.630Z,1.50
2023-03-21T12:07:44.728Z,1.10
2023-03-21T12:08:52.967Z,1.70
2023-03-21T12:09:54.354Z,1.50
2023-03-21T12:10:44.570Z,1.80
2023-03-21T12:11:44.564Z,1.60
2023-03-21T12:12:44.549Z,1.10
2023-03-21T12:13:44.520Z,1.70
2023-03-21T12:14:44.752Z,1.60
2023-03-21T12:17:02.467Z,2.70
2023-03-21T12:18:11.034Z,1.00
2023-03-21T12:19:02.465Z,1.40
2023-03-21T12:20:02.441Z,2.40
2023-03-21T12:21:02.383Z,1.40
2023-03-21T12:22:02.370Z,1.90
2023-03-21T12:23:02.387Z,2.70
2023-03-21T12:24:02.369Z,1.90
2023-03-21T12:25:02.320Z,1.60
2023-03-21T12:26:03.007Z,1.50
2023-03-21T12:27:02.344Z,1.70
2023-03-21T12:28:02.994Z,2.00
2023-03-21T12:29:02.398Z,3.60
2023-03-21T12:30:02.309Z,1.60
2023-03-21T12:31:02.305Z,1.70
2023-03-21T12:32:02.226Z,1.90
2023-03-21T12:33:02.316Z,2.80
2023-03-21T12:34:02.281Z,2.00
2023-03-21T12:35:02.288Z,2.80
2023-03-21T12:36:02.406Z,1.70
2023-03-21T12:37:02.194Z,1.40
2023-03-21T12:38:02.196Z,2.70
2023-03-21T12:39:02.226Z,1.90
2023-03-21T12:40:02.109Z,2.40
2023-03-21T12:41:02.162Z,1.90
2023-03-21T12:42:02.125Z,1.60
2023-03-21T12:43:02.132Z,3.80
2023-03-21T12:44:02.082Z,2.00
2023-03-21T12:45:04.107Z,3.50
2023-03-21T12:46:02.123Z,1.90
2023-03-21T12:47:02.214Z,2.30
2023-03-21T12:48:02.191Z,1.60
2023-03-21T12:49:02.642Z,2.30
2023-03-21T12:50:01.986Z,2.10
2023-03-21T12:51:02.004Z,2.70
2023-03-21T12:52:02.074Z,3.20
2023-03-21T12:53:02.104Z,2.70
2023-03-21T12:54:02.049Z,2.50
2023-03-21T12:55:01.955Z,2.20
2023-03-21T12:56:01.982Z,3.10
2023-03-21T12:57:01.971Z,3.20
2023-03-21T12:58:01.973Z,2.10
2023-03-21T12:59:01.972Z,2.60
2023-03-21T13:00:01.924Z,2.10
2023-03-21T13:01:01.945Z,3.50
2023-03-21T13:02:01.942Z,2.80
2023-03-21T13:03:01.869Z,2.50
2023-03-21T13:04:01.913Z,3.40
2023-03-21T13:05:01.879Z,2.80
2023-03-21T13:06:01.909Z,2.70
2023-03-21T13:07:01.827Z,2.40
2023-03-21T13:08:01.816Z,2.90
2023-03-21T13:09:01.822Z,2.60
2023-03-21T13:10:01.802Z,1.70
2023-03-21T13:11:01.812Z,2.10
2023-03-21T13:12:01.759Z,2.50
2023-03-21T13:13:01.745Z,2.30
2023-03-21T13:14:01.833Z,3.00
2023-03-21T13:15:01.784Z,2.00
2023-03-21T13:16:01.779Z,2.40
2023-03-21T13:17:01.714Z,2.50
2023-03-21T13:18:01.746Z,1.70
2023-03-21T13:19:01.813Z,1.80
2023-03-21T13:20:01.659Z,2.80
2023-03-21T13:21:01.639Z,2.20
2023-03-21T13:22:01.710Z,3.40
2023-03-21T13:23:01.964Z,1.90
2023-03-21T13:24:01.713Z,2.70
2023-03-21T13:25:01.626Z,3.60
2023-03-21T13:26:01.693Z,2.50
2023-03-21T13:27:01.627Z,2.80
2023-03-21T13:28:01.628Z,1.70
2023-03-21T13:29:01.749Z,1.20
2023-03-21T13:30:01.603Z,2.30
2023-03-21T13:31:01.607Z,1.70
2023-03-21T13:32:01.668Z,1.90
2023-03-21T13:33:01.564Z,3.30
2023-03-21T13:34:01.653Z,2.40
2023-03-21T13:35:01.562Z,1.80